sensor_id;sensor_type;location;lat;lon;timestamp;P1;durP1;ratioP1;P2;durP2;ratioP2
25365;SDS011;13315;48.274;-1.900;2023-07-31T00:00:04;2.45;;;1.85;;
25365;SDS011;13315;48.274;-1.900;2023-07-31T00:02:30;4.00;;;2.38;;
25365;SDS011;13315;48.274;-1.900;2023-07-31T00:04:57;3.25;;;2.20;;
25365;SDS011;13315;48.274;-1.900;2023-07-31T00:07:23;6.50;;;3.67;;
25365;SDS011;13315;48.274;-1.900;2023-07-31T00:09:49;3.47;;;2.53;;
25365;SDS011;13315;48.274;-1.900;2023-07-31T00:12:15;5.18;;;2.17;;
25365;SDS011;13315;48.274;-1.900;2023-07-31T00:14:41;1.83;;;1.73;;
25365;SDS011;13315;48.274;-1.900;2023-07-31T00:17:07;6.25;;;2.97;;
25365;SDS011;13315;48.274;-1.900;2023-07-31T00:19:33;4.35;;;2.70;;
25365;SDS011;13315;48.274;-1.900;2023-07-31T00:21:59;2.83;;;1.92;;
25365;SDS011;13315;48.274;-1.900;2023-07-31T00:24:25;4.60;;;2.35;;
25365;SDS011;13315;48.274;-1.900;2023-07-31T00:26:51;6.22;;;2.63;;
25365;SDS011;13315;48.274;-1.900;2023-07-31T00:29:18;3.50;;;2.85;;
25365;SDS011;13315;48.274;-1.900;2023-07-31T00:31:44;5.90;;;3.13;;
25365;SDS011;13315;48.274;-1.900;2023-07-31T00:34:10;4.45;;;2.90;;
25365;SDS011;13315;48.274;-1.900;2023-07-31T00:36:36;8.27;;;2.75;;
25365;SDS011;13315;48.274;-1.900;2023-07-31T00:39:02;3.03;;;2.20;;
25365;SDS011;13315;48.274;-1.900;2023-07-31T00:41:29;5.65;;;2.50;;
25365;SDS011;13315;48.274;-1.900;2023-07-31T00:43:55;2.67;;;2.28;;
25365;SDS011;13315;48.274;-1.900;2023-07-31T00:46:21;6.95;;;3.08;;
25365;SDS011;13315;48.274;-1.900;2023-07-31T00:48:48;4.47;;;2.28;;
25365;SDS011;13315;48.274;-1.900;2023-07-31T00:51:14;5.60;;;2.75;;
25365;SDS011;13315;48.274;-1.900;2023-07-31T00:53:41;8.13;;;2.88;;
25365;SDS011;13315;48.274;-1.900;2023-07-31T00:56:07;3.95;;;3.05;;
25365;SDS011;13315;48.274;-1.900;2023-07-31T00:58:33;4.10;;;2.63;;
25365;SDS011;13315;48.274;-1.900;2023-07-31T01:00:59;9.07;;;3.83;;
25365;SDS011;13315;48.274;-1.900;2023-07-31T01:03:25;2.92;;;2.30;;
25365;SDS011;13315;48.274;-1.900;2023-07-31T01:11:19;6.22;;;3.03;;
25365;SDS011;13315;48.274;-1.900;2023-07-31T01:13:47;2.60;;;2.22;;
25365;SDS011;13315;48.274;-1.900;2023-07-31T01:16:14;2.53;;;2.25;;
25365;SDS011;13315;48.274;-1.900;2023-07-31T01:18:40;3.55;;;2.60;;
25365;SDS011;13315;48.274;-1.900;2023-07-31T01:21:41;3.20;;;2.17;;
25365;SDS011;13315;48.274;-1.900;2023-07-31T01:25:05;4.07;;;2.13;;
25365;SDS011;13315;48.274;-1.900;2023-07-31T01:27:10;5.07;;;2.20;;
25365;SDS011;13315;48.274;-1.900;2023-07-31T01:29:40;4.80;;;2.80;;
25365;SDS011;13315;48.274;-1.900;2023-07-31T01:32:09;3.65;;;2.47;;
25365;SDS011;13315;48.274;-1.900;2023-07-31T01:34:35;4.68;;;2.83;;
25365;SDS011;13315;48.274;-1.900;2023-07-31T01:37:02;3.45;;;2.42;;
25365;SDS011;13315;48.274;-1.900;2023-07-31T01:39:28;3.38;;;3.00;;
25365;SDS011;13315;48.274;-1.900;2023-07-31T01:41:54;6.03;;;2.95;;
25365;SDS011;13315;48.274;-1.900;2023-07-31T01:44:21;6.13;;;2.45;;
25365;SDS011;13315;48.274;-1.900;2023-07-31T01:46:47;3.30;;;2.80;;
25365;SDS011;13315;48.274;-1.900;2023-07-31T01:49:13;3.55;;;2.17;;
25365;SDS011;13315;48.274;-1.900;2023-07-31T01:51:39;5.97;;;2.28;;
25365;SDS011;13315;48.274;-1.900;2023-07-31T01:54:05;3.85;;;2.65;;
25365;SDS011;13315;48.274;-1.900;2023-07-31T01:56:31;5.88;;;2.90;;
25365;SDS011;13315;48.274;-1.900;2023-07-31T01:58:57;4.35;;;3.20;;
25365;SDS011;13315;48.274;-1.900;2023-07-31T02:01:23;2.58;;;2.13;;
25365;SDS011;13315;48.274;-1.900;2023-07-31T02:03:49;2.83;;;2.28;;
25365;SDS011;13315;48.274;-1.900;2023-07-31T02:06:15;5.75;;;2.35;;
25365;SDS011;13315;48.274;-1.900;2023-07-31T02:08:41;5.13;;;2.65;;
25365;SDS011;13315;48.274;-1.900;2023-07-31T02:11:07;4.35;;;2.03;;
25365;SDS011;13315;48.274;-1.900;2023-07-31T02:13:33;6.57;;;2.03;;
25365;SDS011;13315;48.274;-1.900;2023-07-31T02:15:59;8.95;;;2.33;;
25365;SDS011;13315;48.274;-1.900;2023-07-31T02:18:26;2.70;;;2.20;;
25365;SDS011;13315;48.274;-1.900;2023-07-31T02:20:52;3.20;;;2.35;;
25365;SDS011;13315;48.274;-1.900;2023-07-31T02:23:18;4.13;;;1.90;;
25365;SDS011;13315;48.274;-1.900;2023-07-31T02:25:45;6.00;;;3.20;;
25365;SDS011;13315;48.274;-1.900;2023-07-31T02:28:11;3.53;;;2.40;;
25365;SDS011;13315;48.274;-1.900;2023-07-31T02:30:37;3.72;;;2.88;;
25365;SDS011;13315;48.274;-1.900;2023-07-31T02:33:04;2.47;;;2.20;;
25365;SDS011;13315;48.274;-1.900;2023-07-31T02:35:30;7.05;;;2.53;;
25365;SDS011;13315;48.274;-1.900;2023-07-31T02:37:56;2.72;;;2.10;;
25365;SDS011;13315;48.274;-1.900;2023-07-31T02:40:22;2.50;;;1.92;;
25365;SDS011;13315;48.274;-1.900;2023-07-31T02:42:48;4.35;;;2.33;;
25365;SDS011;13315;48.274;-1.900;2023-07-31T02:45:14;2.53;;;2.03;;
25365;SDS011;13315;48.274;-1.900;2023-07-31T02:47:40;2.47;;;2.25;;
25365;SDS011;13315;48.274;-1.900;2023-07-31T02:50:06;2.20;;;1.80;;
25365;SDS011;13315;48.274;-1.900;2023-07-31T02:52:32;2.13;;;2.03;;
25365;SDS011;13315;48.274;-1.900;2023-07-31T02:54:58;3.85;;;2.22;;
25365;SDS011;13315;48.274;-1.900;2023-07-31T02:57:24;4.70;;;1.90;;
25365;SDS011;13315;48.274;-1.900;2023-07-31T02:59:50;3.17;;;2.20;;
25365;SDS011;13315;48.274;-1.900;2023-07-31T03:02:17;3.65;;;2.38;;
25365;SDS011;13315;48.274;-1.900;2023-07-31T03:04:43;2.63;;;1.95;;
25365;SDS011;13315;48.274;-1.900;2023-07-31T03:07:09;3.03;;;2.40;;
25365;SDS011;13315;48.274;-1.900;2023-07-31T03:09:35;5.07;;;2.92;;
25365;SDS011;13315;48.274;-1.900;2023-07-31T03:12:01;2.53;;;2.20;;
25365;SDS011;13315;48.274;-1.900;2023-07-31T03:14:27;3.95;;;2.45;;
25365;SDS011;13315;48.274;-1.900;2023-07-31T03:16:53;2.58;;;2.33;;
25365;SDS011;13315;48.274;-1.900;2023-07-31T03:19:19;2.45;;;2.25;;
25365;SDS011;13315;48.274;-1.900;2023-07-31T03:21:45;4.72;;;2.47;;
25365;SDS011;13315;48.274;-1.900;2023-07-31T03:24:11;1.80;;;1.67;;
25365;SDS011;13315;48.274;-1.900;2023-07-31T03:26:37;4.93;;;2.55;;
25365;SDS011;13315;48.274;-1.900;2023-07-31T03:31:32;2.42;;;2.00;;
25365;SDS011;13315;48.274;-1.900;2023-07-31T03:33:58;2.17;;;1.80;;
25365;SDS011;13315;48.274;-1.900;2023-07-31T03:36:24;6.03;;;3.10;;
25365;SDS011;13315;48.274;-1.900;2023-07-31T03:38:51;4.65;;;1.98;;
25365;SDS011;13315;48.274;-1.900;2023-07-31T03:41:17;2.45;;;1.90;;
25365;SDS011;13315;48.274;-1.900;2023-07-31T03:43:43;7.18;;;2.45;;
25365;SDS011;13315;48.274;-1.900;2023-07-31T03:46:09;3.13;;;2.20;;
25365;SDS011;13315;48.274;-1.900;2023-07-31T03:48:36;4.57;;;2.08;;
25365;SDS011;13315;48.274;-1.900;2023-07-31T03:51:02;4.90;;;2.28;;
25365;SDS011;13315;48.274;-1.900;2023-07-31T03:53:28;3.13;;;2.60;;
25365;SDS011;13315;48.274;-1.900;2023-07-31T03:55:54;4.03;;;2.28;;
25365;SDS011;13315;48.274;-1.900;2023-07-31T03:58:21;2.08;;;1.98;;
25365;SDS011;13315;48.274;-1.900;2023-07-31T04:00:47;2.00;;;1.80;;
25365;SDS011;13315;48.274;-1.900;2023-07-31T04:03:13;6.03;;;2.10;;
25365;SDS011;13315;48.274;-1.900;2023-07-31T04:05:39;1.90;;;1.80;;
25365;SDS011;13315;48.274;-1.900;2023-07-31T04:08:05;2.40;;;2.20;;
25365;SDS011;13315;48.274;-1.900;2023-07-31T04:10:31;4.13;;;2.00;;
25365;SDS011;13315;48.274;-1.900;2023-07-31T04:12:58;6.70;;;2.28;;
25365;SDS011;13315;48.274;-1.900;2023-07-31T04:15:25;5.30;;;2.47;;
25365;SDS011;13315;48.274;-1.900;2023-07-31T04:17:51;2.13;;;1.85;;
25365;SDS011;13315;48.274;-1.900;2023-07-31T04:20:17;2.42;;;2.22;;
25365;SDS011;13315;48.274;-1.900;2023-07-31T04:22:43;3.78;;;2.00;;
25365;SDS011;13315;48.274;-1.900;2023-07-31T04:25:09;1.75;;;1.65;;
25365;SDS011;13315;48.274;-1.900;2023-07-31T04:27:35;2.35;;;2.15;;
25365;SDS011;13315;48.274;-1.900;2023-07-31T04:30:02;2.13;;;1.70;;
25365;SDS011;13315;48.274;-1.900;2023-07-31T04:32:28;2.17;;;2.08;;
25365;SDS011;13315;48.274;-1.900;2023-07-31T04:34:54;2.33;;;2.15;;
25365;SDS011;13315;48.274;-1.900;2023-07-31T04:37:20;4.28;;;2.17;;
25365;SDS011;13315;48.274;-1.900;2023-07-31T04:39:47;3.03;;;2.33;;
25365;SDS011;13315;48.274;-1.900;2023-07-31T04:42:13;4.57;;;2.08;;
25365;SDS011;13315;48.274;-1.900;2023-07-31T04:44:39;2.00;;;1.90;;
25365;SDS011;13315;48.274;-1.900;2023-07-31T04:47:05;1.80;;;1.67;;
25365;SDS011;13315;48.274;-1.900;2023-07-31T04:49:31;3.33;;;2.13;;
25365;SDS011;13315;48.274;-1.900;2023-07-31T04:51:58;6.35;;;2.55;;
25365;SDS011;13315;48.274;-1.900;2023-07-31T04:54:24;8.82;;;2.25;;
25365;SDS011;13315;48.274;-1.900;2023-07-31T04:56:50;3.40;;;2.22;;
25365;SDS011;13315;48.274;-1.900;2023-07-31T04:59:17;3.78;;;2.05;;
25365;SDS011;13315;48.274;-1.900;2023-07-31T05:01:43;2.83;;;2.25;;
25365;SDS011;13315;48.274;-1.900;2023-07-31T05:04:12;4.93;;;2.25;;
25365;SDS011;13315;48.274;-1.900;2023-07-31T05:06:38;1.75;;;1.65;;
25365;SDS011;13315;48.274;-1.900;2023-07-31T05:09:04;7.85;;;2.83;;
25365;SDS011;13315;48.274;-1.900;2023-07-31T05:11:31;2.83;;;1.83;;
25365;SDS011;13315;48.274;-1.900;2023-07-31T05:13:57;2.03;;;1.83;;
25365;SDS011;13315;48.274;-1.900;2023-07-31T05:16:23;5.68;;;1.65;;
25365;SDS011;13315;48.274;-1.900;2023-07-31T05:18:49;2.13;;;1.90;;
25365;SDS011;13315;48.274;-1.900;2023-07-31T05:21:15;2.13;;;1.70;;
25365;SDS011;13315;48.274;-1.900;2023-07-31T05:23:41;3.75;;;1.65;;
25365;SDS011;13315;48.274;-1.900;2023-07-31T05:26:07;2.15;;;2.05;;
25365;SDS011;13315;48.274;-1.900;2023-07-31T05:28:35;2.30;;;1.70;;
25365;SDS011;13315;48.274;-1.900;2023-07-31T05:31:04;1.38;;;1.27;;
25365;SDS011;13315;48.274;-1.900;2023-07-31T05:33:31;3.63;;;2.30;;
25365;SDS011;13315;48.274;-1.900;2023-07-31T05:35:58;3.17;;;2.05;;
25365;SDS011;13315;48.274;-1.900;2023-07-31T05:38:24;2.75;;;1.60;;
25365;SDS011;13315;48.274;-1.900;2023-07-31T05:40:50;1.85;;;1.65;;
25365;SDS011;13315;48.274;-1.900;2023-07-31T05:43:16;1.50;;;1.40;;
25365;SDS011;13315;48.274;-1.900;2023-07-31T05:45:42;3.58;;;2.08;;
25365;SDS011;13315;48.274;-1.900;2023-07-31T05:48:08;1.80;;;1.67;;
25365;SDS011;13315;48.274;-1.900;2023-07-31T05:50:35;1.90;;;1.70;;
25365;SDS011;13315;48.274;-1.900;2023-07-31T05:53:02;1.63;;;1.52;;
25365;SDS011;13315;48.274;-1.900;2023-07-31T05:55:28;1.52;;;1.42;;
25365;SDS011;13315;48.274;-1.900;2023-07-31T05:57:54;1.83;;;1.73;;
25365;SDS011;13315;48.274;-1.900;2023-07-31T06:00:20;3.92;;;1.95;;
25365;SDS011;13315;48.274;-1.900;2023-07-31T06:02:47;2.70;;;1.60;;
25365;SDS011;13315;48.274;-1.900;2023-07-31T06:05:13;2.20;;;1.92;;
25365;SDS011;13315;48.274;-1.900;2023-07-31T06:07:40;1.75;;;1.65;;
25365;SDS011;13315;48.274;-1.900;2023-07-31T06:10:06;1.55;;;1.30;;
25365;SDS011;13315;48.274;-1.900;2023-07-31T06:12:33;2.25;;;1.67;;
25365;SDS011;13315;48.274;-1.900;2023-07-31T06:14:59;2.08;;;1.48;;
25365;SDS011;13315;48.274;-1.900;2023-07-31T06:17:25;2.08;;;1.88;;
25365;SDS011;13315;48.274;-1.900;2023-07-31T06:19:52;4.72;;;2.40;;
25365;SDS011;13315;48.274;-1.900;2023-07-31T06:22:18;1.55;;;1.45;;
25365;SDS011;13315;48.274;-1.900;2023-07-31T06:24:44;1.75;;;1.42;;
25365;SDS011;13315;48.274;-1.900;2023-07-31T06:27:10;1.38;;;1.33;;
25365;SDS011;13315;48.274;-1.900;2023-07-31T06:29:37;3.28;;;1.60;;
25365;SDS011;13315;48.274;-1.900;2023-07-31T06:32:03;4.95;;;2.58;;
25365;SDS011;13315;48.274;-1.900;2023-07-31T06:34:29;1.67;;;1.55;;
25365;SDS011;13315;48.274;-1.900;2023-07-31T06:36:58;1.77;;;1.60;;
25365;SDS011;13315;48.274;-1.900;2023-07-31T06:39:24;4.38;;;1.42;;
25365;SDS011;13315;48.274;-1.900;2023-07-31T06:41:50;2.05;;;1.60;;
25365;SDS011;13315;48.274;-1.900;2023-07-31T06:44:16;3.22;;;1.83;;
25365;SDS011;13315;48.274;-1.900;2023-07-31T06:46:42;3.33;;;2.15;;
25365;SDS011;13315;48.274;-1.900;2023-07-31T06:49:08;3.08;;;1.40;;
25365;SDS011;13315;48.274;-1.900;2023-07-31T06:51:34;2.10;;;1.50;;
25365;SDS011;13315;48.274;-1.900;2023-07-31T06:54:01;1.55;;;1.45;;
25365;SDS011;13315;48.274;-1.900;2023-07-31T06:56:27;1.80;;;1.42;;
25365;SDS011;13315;48.274;-1.900;2023-07-31T06:58:53;1.50;;;1.40;;
25365;SDS011;13315;48.274;-1.900;2023-07-31T07:01:19;2.30;;;1.73;;
25365;SDS011;13315;48.274;-1.900;2023-07-31T07:03:45;1.88;;;1.67;;
25365;SDS011;13315;48.274;-1.900;2023-07-31T07:06:11;4.50;;;1.70;;
25365;SDS011;13315;48.274;-1.900;2023-07-31T07:08:38;5.03;;;1.80;;
25365;SDS011;13315;48.274;-1.900;2023-07-31T07:11:04;1.40;;;1.30;;
25365;SDS011;13315;48.274;-1.900;2023-07-31T07:13:30;5.85;;;1.90;;
25365;SDS011;13315;48.274;-1.900;2023-07-31T07:15:57;1.67;;;1.58;;
25365;SDS011;13315;48.274;-1.900;2023-07-31T07:18:23;2.00;;;1.65;;
25365;SDS011;13315;48.274;-1.900;2023-07-31T07:20:49;4.07;;;1.73;;
25365;SDS011;13315;48.274;-1.900;2023-07-31T07:23:16;4.20;;;2.13;;
25365;SDS011;13315;48.274;-1.900;2023-07-31T07:25:42;1.77;;;1.67;;
25365;SDS011;13315;48.274;-1.900;2023-07-31T07:28:08;1.30;;;1.30;;
25365;SDS011;13315;48.274;-1.900;2023-07-31T07:30:35;2.10;;;1.90;;
25365;SDS011;13315;48.274;-1.900;2023-07-31T07:33:01;2.35;;;1.88;;
25365;SDS011;13315;48.274;-1.900;2023-07-31T07:35:27;2.38;;;2.00;;
25365;SDS011;13315;48.274;-1.900;2023-07-31T07:37:53;3.15;;;1.52;;
25365;SDS011;13315;48.274;-1.900;2023-07-31T07:40:20;2.65;;;1.52;;
25365;SDS011;13315;48.274;-1.900;2023-07-31T07:42:46;3.97;;;2.30;;
25365;SDS011;13315;48.274;-1.900;2023-07-31T07:45:12;1.70;;;1.60;;
25365;SDS011;13315;48.274;-1.900;2023-07-31T07:47:40;3.72;;;1.88;;
25365;SDS011;13315;48.274;-1.900;2023-07-31T07:52:33;5.45;;;1.58;;
25365;SDS011;13315;48.274;-1.900;2023-07-31T07:54:59;1.77;;;1.60;;
25365;SDS011;13315;48.274;-1.900;2023-07-31T07:57:25;2.00;;;1.90;;
25365;SDS011;13315;48.274;-1.900;2023-07-31T07:59:51;2.25;;;1.60;;
25365;SDS011;13315;48.274;-1.900;2023-07-31T08:02:17;1.98;;;1.83;;
25365;SDS011;13315;48.274;-1.900;2023-07-31T08:04:43;1.48;;;1.38;;
25365;SDS011;13315;48.274;-1.900;2023-07-31T08:07:12;2.15;;;1.60;;
25365;SDS011;13315;48.274;-1.900;2023-07-31T08:09:39;1.45;;;1.35;;
25365;SDS011;13315;48.274;-1.900;2023-07-31T08:12:05;2.20;;;1.40;;
25365;SDS011;13315;48.274;-1.900;2023-07-31T08:14:32;1.52;;;1.50;;
25365;SDS011;13315;48.274;-1.900;2023-07-31T08:16:58;1.92;;;1.83;;
25365;SDS011;13315;48.274;-1.900;2023-07-31T08:19:24;1.77;;;1.67;;
25365;SDS011;13315;48.274;-1.900;2023-07-31T08:21:50;2.20;;;2.00;;
25365;SDS011;13315;48.274;-1.900;2023-07-31T08:24:16;3.30;;;1.65;;
25365;SDS011;13315;48.274;-1.900;2023-07-31T08:26:42;1.60;;;1.60;;
25365;SDS011;13315;48.274;-1.900;2023-07-31T08:29:08;1.90;;;1.80;;
25365;SDS011;13315;48.274;-1.900;2023-07-31T08:31:34;2.30;;;2.10;;
25365;SDS011;13315;48.274;-1.900;2023-07-31T08:34:00;1.60;;;1.50;;
25365;SDS011;13315;48.274;-1.900;2023-07-31T08:36:27;1.77;;;1.67;;
25365;SDS011;13315;48.274;-1.900;2023-07-31T08:38:53;2.03;;;1.90;;
25365;SDS011;13315;48.274;-1.900;2023-07-31T08:41:19;2.00;;;1.77;;
25365;SDS011;13315;48.274;-1.900;2023-07-31T08:43:45;4.20;;;2.20;;
25365;SDS011;13315;48.274;-1.900;2023-07-31T08:46:11;2.20;;;1.75;;
25365;SDS011;13315;48.274;-1.900;2023-07-31T08:48:39;2.10;;;1.90;;
25365;SDS011;13315;48.274;-1.900;2023-07-31T08:51:06;1.70;;;1.60;;
25365;SDS011;13315;48.274;-1.900;2023-07-31T08:53:32;3.47;;;1.67;;
25365;SDS011;13315;48.274;-1.900;2023-07-31T08:55:58;1.85;;;1.75;;
25365;SDS011;13315;48.274;-1.900;2023-07-31T08:58:25;2.47;;;2.28;;
25365;SDS011;13315;48.274;-1.900;2023-07-31T09:00:53;1.75;;;1.65;;
25365;SDS011;13315;48.274;-1.900;2023-07-31T09:03:21;6.00;;;2.08;;
25365;SDS011;13315;48.274;-1.900;2023-07-31T09:05:48;6.00;;;2.05;;
25365;SDS011;13315;48.274;-1.900;2023-07-31T09:08:17;2.42;;;2.17;;
25365;SDS011;13315;48.274;-1.900;2023-07-31T09:10:44;3.67;;;3.30;;
25365;SDS011;13315;48.274;-1.900;2023-07-31T09:13:17;3.40;;;3.10;;
25365;SDS011;13315;48.274;-1.900;2023-07-31T09:15:43;2.33;;;2.13;;
25365;SDS011;13315;48.274;-1.900;2023-07-31T09:18:10;2.53;;;2.00;;
25365;SDS011;13315;48.274;-1.900;2023-07-31T09:20:37;2.90;;;2.70;;
25365;SDS011;13315;48.274;-1.900;2023-07-31T09:23:07;2.33;;;2.13;;
25365;SDS011;13315;48.274;-1.900;2023-07-31T09:25:33;5.38;;;1.85;;
25365;SDS011;13315;48.274;-1.900;2023-07-31T09:28:01;3.20;;;2.53;;
25365;SDS011;13315;48.274;-1.900;2023-07-31T09:30:27;1.95;;;1.77;;
25365;SDS011;13315;48.274;-1.900;2023-07-31T09:33:03;4.88;;;1.92;;
25365;SDS011;13315;48.274;-1.900;2023-07-31T09:35:33;5.93;;;2.28;;
25365;SDS011;13315;48.274;-1.900;2023-07-31T09:38:00;2.13;;;1.55;;
25365;SDS011;13315;48.274;-1.900;2023-07-31T09:43:01;5.22;;;2.53;;
25365;SDS011;13315;48.274;-1.900;2023-07-31T09:45:27;2.20;;;1.98;;
25365;SDS011;13315;48.274;-1.900;2023-07-31T09:47:54;1.98;;;1.50;;
25365;SDS011;13315;48.274;-1.900;2023-07-31T09:50:21;4.28;;;2.22;;
25365;SDS011;13315;48.274;-1.900;2023-07-31T09:52:47;1.67;;;1.58;;
25365;SDS011;13315;48.274;-1.900;2023-07-31T09:55:13;2.42;;;2.05;;
25365;SDS011;13315;48.274;-1.900;2023-07-31T09:57:40;2.33;;;1.98;;
25365;SDS011;13315;48.274;-1.900;2023-07-31T10:00:08;6.05;;;2.90;;
25365;SDS011;13315;48.274;-1.900;2023-07-31T10:02:34;2.15;;;1.95;;
25365;SDS011;13315;48.274;-1.900;2023-07-31T10:05:02;4.57;;;2.70;;
25365;SDS011;13315;48.274;-1.900;2023-07-31T10:07:29;4.97;;;2.30;;
25365;SDS011;13315;48.274;-1.900;2023-07-31T10:09:59;4.28;;;2.63;;
25365;SDS011;13315;48.274;-1.900;2023-07-31T10:12:26;4.60;;;2.30;;
25365;SDS011;13315;48.274;-1.900;2023-07-31T10:14:55;6.65;;;3.20;;
25365;SDS011;13315;48.274;-1.900;2023-07-31T10:17:22;3.83;;;3.03;;
25365;SDS011;13315;48.274;-1.900;2023-07-31T10:19:49;5.88;;;2.97;;
25365;SDS011;13315;48.274;-1.900;2023-07-31T10:22:15;3.72;;;2.80;;
25365;SDS011;13315;48.274;-1.900;2023-07-31T10:24:43;5.00;;;2.80;;
25365;SDS011;13315;48.274;-1.900;2023-07-31T10:27:10;5.53;;;2.53;;
25365;SDS011;13315;48.274;-1.900;2023-07-31T10:29:37;2.75;;;2.55;;
25365;SDS011;13315;48.274;-1.900;2023-07-31T10:32:03;3.10;;;2.90;;
25365;SDS011;13315;48.274;-1.900;2023-07-31T10:34:33;2.83;;;2.63;;
25365;SDS011;13315;48.274;-1.900;2023-07-31T10:40:04;3.40;;;2.60;;
25365;SDS011;13315;48.274;-1.900;2023-07-31T10:42:31;4.32;;;2.63;;
25365;SDS011;13315;48.274;-1.900;2023-07-31T10:45:03;6.60;;;2.53;;
25365;SDS011;13315;48.274;-1.900;2023-07-31T10:47:36;4.95;;;3.28;;
25365;SDS011;13315;48.274;-1.900;2023-07-31T10:50:12;3.42;;;2.35;;
25365;SDS011;13315;48.274;-1.900;2023-07-31T10:52:39;4.90;;;3.08;;
25365;SDS011;13315;48.274;-1.900;2023-07-31T10:57:44;8.07;;;2.60;;
25365;SDS011;13315;48.274;-1.900;2023-07-31T11:00:17;4.25;;;2.47;;
25365;SDS011;13315;48.274;-1.900;2023-07-31T11:02:54;3.50;;;2.63;;
25365;SDS011;13315;48.274;-1.900;2023-07-31T11:05:23;2.70;;;2.50;;
25365;SDS011;13315;48.274;-1.900;2023-07-31T11:10:38;2.30;;;2.03;;
25365;SDS011;13315;48.274;-1.900;2023-07-31T11:13:04;3.97;;;2.67;;
25365;SDS011;13315;48.274;-1.900;2023-07-31T11:15:30;8.07;;;3.03;;
25365;SDS011;13315;48.274;-1.900;2023-07-31T11:17:56;2.50;;;2.15;;
25365;SDS011;13315;48.274;-1.900;2023-07-31T11:20:26;3.97;;;2.67;;
25365;SDS011;13315;48.274;-1.900;2023-07-31T11:22:52;2.60;;;2.33;;
25365;SDS011;13315;48.274;-1.900;2023-07-31T11:25:18;3.30;;;2.97;;
25365;SDS011;13315;48.274;-1.900;2023-07-31T11:27:45;2.95;;;2.53;;
25365;SDS011;13315;48.274;-1.900;2023-07-31T11:30:11;2.20;;;2.00;;
25365;SDS011;13315;48.274;-1.900;2023-07-31T11:32:37;2.55;;;2.35;;
25365;SDS011;13315;48.274;-1.900;2023-07-31T11:35:03;1.90;;;1.80;;
25365;SDS011;13315;48.274;-1.900;2023-07-31T11:37:40;2.10;;;2.00;;
25365;SDS011;13315;48.274;-1.900;2023-07-31T11:40:06;2.08;;;1.95;;
25365;SDS011;13315;48.274;-1.900;2023-07-31T11:42:34;3.55;;;2.42;;
25365;SDS011;13315;48.274;-1.900;2023-07-31T11:45:04;3.10;;;2.17;;
25365;SDS011;13315;48.274;-1.900;2023-07-31T11:47:32;1.90;;;1.80;;
25365;SDS011;13315;48.274;-1.900;2023-07-31T11:50:00;1.63;;;1.52;;
25365;SDS011;13315;48.274;-1.900;2023-07-31T11:52:27;2.20;;;2.00;;
25365;SDS011;13315;48.274;-1.900;2023-07-31T11:54:53;2.65;;;1.85;;
25365;SDS011;13315;48.274;-1.900;2023-07-31T11:57:19;1.80;;;1.70;;
25365;SDS011;13315;48.274;-1.900;2023-07-31T11:59:46;1.80;;;1.70;;
25365;SDS011;13315;48.274;-1.900;2023-07-31T12:02:12;1.60;;;1.50;;
25365;SDS011;13315;48.274;-1.900;2023-07-31T12:04:38;4.15;;;2.00;;
25365;SDS011;13315;48.274;-1.900;2023-07-31T12:07:04;1.75;;;1.60;;
25365;SDS011;13315;48.274;-1.900;2023-07-31T12:09:30;1.58;;;1.48;;
25365;SDS011;13315;48.274;-1.900;2023-07-31T12:11:57;1.52;;;1.42;;
25365;SDS011;13315;48.274;-1.900;2023-07-31T12:14:29;1.98;;;1.70;;
25365;SDS011;13315;48.274;-1.900;2023-07-31T12:16:59;1.85;;;1.50;;
25365;SDS011;13315;48.274;-1.900;2023-07-31T12:19:25;1.58;;;1.48;;
25365;SDS011;13315;48.274;-1.900;2023-07-31T12:21:55;1.88;;;1.50;;
25365;SDS011;13315;48.274;-1.900;2023-07-31T12:24:21;2.67;;;1.90;;
25365;SDS011;13315;48.274;-1.900;2023-07-31T12:26:48;1.73;;;1.63;;
25365;SDS011;13315;48.274;-1.900;2023-07-31T12:29:14;1.92;;;1.70;;
25365;SDS011;13315;48.274;-1.900;2023-07-31T12:31:41;3.15;;;1.80;;
25365;SDS011;13315;48.274;-1.900;2023-07-31T12:34:17;4.15;;;1.60;;
25365;SDS011;13315;48.274;-1.900;2023-07-31T12:36:43;1.48;;;1.40;;
25365;SDS011;13315;48.274;-1.900;2023-07-31T12:39:10;2.10;;;1.40;;
25365;SDS011;13315;48.274;-1.900;2023-07-31T12:41:36;1.70;;;1.60;;
25365;SDS011;13315;48.274;-1.900;2023-07-31T12:44:02;1.40;;;1.40;;
25365;SDS011;13315;48.274;-1.900;2023-07-31T12:46:28;1.40;;;1.40;;
25365;SDS011;13315;48.274;-1.900;2023-07-31T12:48:54;2.00;;;1.48;;
25365;SDS011;13315;48.274;-1.900;2023-07-31T12:51:20;1.50;;;1.40;;
25365;SDS011;13315;48.274;-1.900;2023-07-31T12:53:47;1.25;;;1.25;;
25365;SDS011;13315;48.274;-1.900;2023-07-31T12:56:13;1.33;;;1.33;;
25365;SDS011;13315;48.274;-1.900;2023-07-31T12:58:39;1.42;;;1.42;;
25365;SDS011;13315;48.274;-1.900;2023-07-31T13:01:05;1.70;;;1.60;;
25365;SDS011;13315;48.274;-1.900;2023-07-31T13:03:31;1.42;;;1.42;;
25365;SDS011;13315;48.274;-1.900;2023-07-31T13:05:57;1.70;;;1.60;;
25365;SDS011;13315;48.274;-1.900;2023-07-31T13:08:23;1.70;;;1.60;;
25365;SDS011;13315;48.274;-1.900;2023-07-31T13:10:49;1.45;;;1.45;;
25365;SDS011;13315;48.274;-1.900;2023-07-31T13:13:16;1.20;;;1.20;;
25365;SDS011;13315;48.274;-1.900;2023-07-31T13:15:43;1.40;;;1.40;;
25365;SDS011;13315;48.274;-1.900;2023-07-31T13:18:09;1.55;;;1.48;;
25365;SDS011;13315;48.274;-1.900;2023-07-31T13:20:35;1.33;;;1.33;;
25365;SDS011;13315;48.274;-1.900;2023-07-31T13:23:01;1.67;;;1.58;;
25365;SDS011;13315;48.274;-1.900;2023-07-31T13:25:27;1.77;;;1.67;;
25365;SDS011;13315;48.274;-1.900;2023-07-31T13:27:53;1.50;;;1.50;;
25365;SDS011;13315;48.274;-1.900;2023-07-31T13:30:19;1.52;;;1.52;;
25365;SDS011;13315;48.274;-1.900;2023-07-31T13:32:45;1.70;;;1.70;;
25365;SDS011;13315;48.274;-1.900;2023-07-31T13:35:11;5.50;;;5.20;;
25365;SDS011;13315;48.274;-1.900;2023-07-31T13:37:38;6.80;;;6.50;;
25365;SDS011;13315;48.274;-1.900;2023-07-31T13:40:04;14.73;;;14.00;;
25365;SDS011;13315;48.274;-1.900;2023-07-31T13:42:30;11.30;;;10.73;;
25365;SDS011;13315;48.274;-1.900;2023-07-31T13:44:56;15.00;;;14.30;;
25365;SDS011;13315;48.274;-1.900;2023-07-31T13:47:23;20.63;;;19.45;;
25365;SDS011;13315;48.274;-1.900;2023-07-31T13:49:49;23.85;;;22.65;;
25365;SDS011;13315;48.274;-1.900;2023-07-31T13:52:15;30.55;;;28.95;;
25365;SDS011;13315;48.274;-1.900;2023-07-31T13:54:41;26.92;;;25.42;;
25365;SDS011;13315;48.274;-1.900;2023-07-31T13:57:08;29.63;;;28.13;;
25365;SDS011;13315;48.274;-1.900;2023-07-31T13:59:34;29.15;;;27.67;;
25365;SDS011;13315;48.274;-1.900;2023-07-31T14:02:01;27.48;;;26.08;;
25365;SDS011;13315;48.274;-1.900;2023-07-31T14:04:28;31.65;;;30.05;;
25365;SDS011;13315;48.274;-1.900;2023-07-31T14:06:55;37.65;;;35.40;;
25365;SDS011;13315;48.274;-1.900;2023-07-31T14:09:21;33.60;;;31.90;;
25365;SDS011;13315;48.274;-1.900;2023-07-31T14:11:47;38.05;;;36.15;;
25365;SDS011;13315;48.274;-1.900;2023-07-31T14:14:13;37.75;;;35.85;;
25365;SDS011;13315;48.274;-1.900;2023-07-31T14:16:39;37.50;;;35.60;;
25365;SDS011;13315;48.274;-1.900;2023-07-31T14:19:06;38.40;;;36.50;;
25365;SDS011;13315;48.274;-1.900;2023-07-31T14:21:33;37.70;;;35.80;;
25365;SDS011;13315;48.274;-1.900;2023-07-31T14:23:59;33.33;;;31.63;;
25365;SDS011;13315;48.274;-1.900;2023-07-31T14:26:25;37.83;;;35.92;;
25365;SDS011;13315;48.274;-1.900;2023-07-31T14:28:52;42.45;;;40.35;;
25365;SDS011;13315;48.274;-1.900;2023-07-31T14:31:18;39.03;;;37.03;;
25365;SDS011;13315;48.274;-1.900;2023-07-31T14:33:44;35.20;;;33.42;;
25365;SDS011;13315;48.274;-1.900;2023-07-31T14:36:10;33.50;;;31.80;;
25365;SDS011;13315;48.274;-1.900;2023-07-31T14:38:36;32.58;;;30.85;;
25365;SDS011;13315;48.274;-1.900;2023-07-31T14:41:03;33.10;;;31.40;;
25365;SDS011;13315;48.274;-1.900;2023-07-31T14:43:29;34.63;;;32.92;;
25365;SDS011;13315;48.274;-1.900;2023-07-31T14:45:55;31.65;;;30.05;;
25365;SDS011;13315;48.274;-1.900;2023-07-31T14:48:24;27.27;;;25.90;;
25365;SDS011;13315;48.274;-1.900;2023-07-31T14:50:50;26.63;;;25.33;;